createdAt,value
2022-11-25T00:02:53.340Z,83.64
2022-11-25T00:07:54.808Z,83.44
2022-11-25T00:12:56.264Z,83.31
2022-11-25T00:17:57.583Z,83.72
2022-11-25T00:22:59.161Z,83.53
2022-11-25T00:28:00.539Z,83.78
2022-11-25T00:33:01.909Z,83.89
2022-11-25T00:38:03.244Z,83.78
2022-11-25T00:43:23.246Z,83.08
2022-11-25T00:48:24.530Z,83.35
2022-11-25T00:53:26.044Z,82.31
2022-11-25T00:58:27.288Z,82.81
2022-11-25T01:03:28.579Z,83.29
2022-11-25T01:08:30.720Z,83.13
2022-11-25T01:13:32.929Z,83.22
2022-11-25T01:18:34.941Z,82.70
2022-11-25T01:23:36.616Z,83.15
2022-11-25T01:28:38.504Z,82.88
2022-11-25T01:33:40.391Z,83.16
2022-11-25T01:38:42.373Z,82.96
2022-11-25T01:43:43.755Z,82.83
2022-11-25T01:48:52.078Z,82.93
2022-11-25T01:53:57.725Z,82.51
2022-11-25T01:58:59.472Z,82.46
2022-11-25T02:04:01.030Z,82.96
2022-11-25T02:09:06.733Z,82.97
2022-11-25T02:14:09.379Z,83.17
2022-11-25T02:19:22.388Z,83.39
2022-11-25T02:24:34.651Z,83.19
2022-11-25T02:29:37.238Z,83.31
2022-11-25T02:34:46.792Z,83.55
2022-11-25T02:39:49.905Z,83.37
2022-11-25T02:44:51.295Z,83.35
2022-11-25T02:49:52.567Z,83.68
2022-11-25T02:54:53.890Z,83.25
2022-11-25T02:59:55.169Z,83.18
2022-11-25T03:04:56.481Z,83.17
2022-11-25T03:09:57.777Z,82.90
2022-11-25T03:14:59.150Z,82.85
2022-11-25T03:20:00.460Z,82.40
2022-11-25T03:25:01.987Z,82.75
2022-11-25T03:30:05.592Z,83.04
2022-11-25T03:35:07.557Z,82.22
2022-11-25T03:40:11.311Z,82.58
2022-11-25T03:45:14.843Z,82.75
2022-11-25T03:50:16.657Z,81.65
2022-11-25T03:55:18.087Z,81.32
2022-11-25T04:00:19.624Z,81.26
2022-11-25T04:05:20.873Z,81.83
2022-11-25T04:10:22.165Z,81.88
2022-11-25T04:15:23.437Z,81.89
2022-11-25T04:20:24.745Z,81.82
2022-11-25T04:25:26.092Z,81.21
2022-11-25T04:30:27.532Z,81.59
2022-11-25T04:35:28.992Z,81.52
2022-11-25T04:40:30.270Z,81.63
2022-11-25T04:45:51.515Z,81.65
2022-11-25T04:50:52.980Z,81.59
2022-11-25T04:55:54.338Z,81.46
2022-11-25T05:00:55.662Z,81.02
2022-11-25T05:05:57.032Z,81.60
2022-11-25T05:10:59.452Z,81.75
2022-11-25T05:16:00.716Z,81.20
2022-11-25T05:21:03.326Z,80.86
2022-11-25T05:26:05.064Z,80.90
2022-11-25T05:31:06.451Z,81.28
2022-11-25T05:36:08.209Z,81.19
2022-11-25T05:41:11.186Z,81.40
2022-11-25T05:46:12.508Z,81.60
2022-11-25T05:51:13.871Z,81.17
2022-11-25T05:56:15.498Z,80.85
2022-11-25T06:01:17.415Z,80.76
2022-11-25T06:06:19.753Z,80.69
2022-11-25T06:11:21.097Z,80.61
2022-11-25T06:16:23.264Z,80.01
2022-11-25T06:21:24.617Z,80.24
2022-11-25T06:26:25.911Z,80.51
2022-11-25T06:31:27.449Z,81.08
2022-11-25T06:36:28.948Z,81.22
2022-11-25T06:41:30.239Z,81.27
2022-11-25T06:46:31.579Z,81.83
2022-11-25T06:51:33.262Z,81.44
2022-11-25T06:56:34.501Z,81.19
2022-11-25T07:01:36.206Z,81.19
2022-11-25T07:06:37.657Z,82.31
2022-11-25T07:11:40.511Z,82.50
2022-11-25T07:16:44.468Z,82.61
2022-11-25T07:21:46.240Z,82.62
2022-11-25T07:26:47.758Z,83.23
2022-11-25T07:31:49.049Z,83.16
2022-11-25T07:36:50.696Z,83.57
2022-11-25T07:41:53.887Z,82.40
2022-11-25T07:46:55.392Z,82.27
2022-11-25T07:52:02.852Z,81.63
2022-11-25T07:57:04.175Z,81.15
2022-11-25T08:02:05.660Z,81.64
2022-11-25T08:07:07.058Z,82.11
2022-11-25T08:12:08.526Z,81.74
2022-11-25T08:17:10.150Z,82.36
2022-11-25T08:22:11.482Z,82.68
2022-11-25T08:27:12.833Z,82.67
2022-11-25T08:32:14.407Z,82.73
2022-11-25T08:37:15.719Z,83.34
2022-11-25T08:42:17.037Z,83.08
2022-11-25T08:47:18.494Z,82.74
2022-11-25T08:52:21.128Z,82.55
2022-11-25T08:57:22.438Z,82.30
2022-11-25T09:02:24.838Z,82.64
2022-11-25T09:07:30.700Z,83.04
2022-11-25T09:12:32.433Z,82.03
2022-11-25T09:17:37.211Z,82.23
2022-11-25T09:22:38.476Z,82.91
2022-11-25T09:27:39.794Z,83.01
2022-11-25T09:32:41.368Z,83.00
2022-11-25T09:37:42.682Z,82.74
2022-11-25T09:43:08.727Z,83.06
2022-11-25T09:48:19.767Z,83.31
2022-11-25T09:53:42.176Z,83.23
2022-11-25T09:58:53.346Z,83.02
2022-11-25T10:04:02.061Z,83.29
2022-11-25T10:09:28.697Z,83.57
2022-11-25T10:14:46.423Z,82.66
2022-11-25T10:19:59.063Z,81.71
2022-11-25T10:25:20.141Z,74.82
2022-11-25T10:30:38.288Z,68.00
2022-11-25T10:35:45.830Z,67.48
2022-11-25T10:40:50.607Z,54.00
2022-11-25T10:46:15.084Z,55.59
2022-11-25T10:51:35.947Z,59.64
2022-11-25T10:57:03.992Z,64.98
2022-11-25T11:02:23.541Z,67.53
2022-11-25T11:07:28.421Z,66.66
2022-11-25T11:12:29.864Z,62.93
2022-11-25T11:17:37.113Z,52.73
2022-11-25T11:22:48.170Z,44.48
2022-11-25T11:27:49.537Z,39.07
2022-11-25T11:32:58.298Z,45.76
2022-11-25T11:38:07.021Z,53.45
2022-11-25T11:43:46.332Z,60.99
2022-11-25T11:48:54.769Z,65.53
2022-11-25T11:54:08.407Z,68.93
2022-11-25T11:59:46.567Z,71.56
2022-11-25T12:05:14.118Z,71.07
2022-11-25T12:10:15.454Z,68.05
2022-11-25T12:15:39.928Z,60.55
2022-11-25T12:21:05.297Z,61.22
2022-11-25T12:26:17.334Z,46.71
2022-11-25T12:31:30.360Z,38.07
2022-11-25T12:36:38.235Z,34.71
2022-11-25T12:41:46.999Z,33.94
2022-11-25T12:46:54.362Z,32.73
2022-11-25T12:52:07.739Z,39.00
2022-11-25T12:57:43.142Z,41.73
2022-11-25T13:03:07.061Z,37.48
2022-11-25T13:08:33.833Z,33.59
2022-11-25T13:14:08.236Z,38.03
2022-11-25T13:19:13.600Z,41.43
2022-11-25T13:24:30.803Z,47.75
2022-11-25T13:29:32.156Z,54.35
2022-11-25T13:34:35.467Z,58.68
2022-11-25T13:39:38.231Z,59.80
2022-11-25T13:44:52.535Z,61.48
2022-11-25T13:50:23.259Z,63.19
2022-11-25T13:55:39.686Z,64.74
2022-11-25T14:01:01.389Z,65.31
2022-11-25T14:06:09.940Z,65.07
2022-11-25T14:11:11.281Z,66.83
2022-11-25T14:16:21.650Z,68.41
2022-11-25T14:21:52.180Z,70.07
2022-11-25T14:26:57.321Z,71.33
2022-11-25T14:32:05.020Z,71.94
2022-11-25T14:37:29.470Z,72.94
2022-11-25T14:42:38.369Z,73.79
2022-11-25T14:47:39.682Z,73.24
2022-11-25T14:52:47.441Z,73.59
2022-11-25T14:57:49.010Z,74.36
2022-11-25T15:03:00.164Z,74.30
2022-11-25T15:08:03.217Z,74.79
2022-11-25T15:13:44.561Z,74.87
2022-11-25T15:18:52.915Z,75.32
2022-11-25T15:23:54.593Z,75.82
2022-11-25T15:28:57.196Z,75.84
2022-11-25T15:34:03.977Z,76.07
2022-11-25T15:39:19.000Z,76.12
2022-11-25T15:44:25.942Z,76.66
2022-11-25T15:49:27.931Z,77.42
2022-11-25T15:54:33.465Z,78.08
2022-11-25T15:59:40.774Z,78.73
2022-11-25T16:04:42.044Z,79.31
2022-11-25T16:09:51.216Z,80.63
2022-11-25T16:14:52.503Z,80.47
2022-11-25T16:19:53.833Z,80.60
2022-11-25T16:25:00.570Z,81.03
2022-11-25T16:30:06.698Z,81.04
2022-11-25T16:35:22.028Z,81.44
2022-11-25T16:40:24.421Z,81.38
2022-11-25T16:45:27.722Z,81.33
2022-11-25T16:50:29.111Z,81.39
2022-11-25T16:55:30.747Z,81.53
2022-11-25T17:00:32.278Z,81.97
2022-11-25T17:05:33.719Z,82.50
2022-11-25T17:10:35.216Z,82.75
2022-11-25T17:15:38.092Z,82.36
2022-11-25T17:20:39.517Z,82.18
2022-11-25T17:25:45.067Z,81.69
2022-11-25T17:30:47.241Z,81.65
2022-11-25T17:35:48.566Z,81.34
2022-11-25T17:40:50.576Z,81.03
2022-11-25T17:45:52.067Z,81.11
2022-11-25T17:50:53.376Z,81.30
2022-11-25T17:55:54.839Z,80.74
2022-11-25T18:00:56.242Z,80.85
2022-11-25T18:05:57.967Z,80.89
2022-11-25T18:11:02.633Z,80.83
2022-11-25T18:16:04.511Z,80.59
2022-11-25T18:21:05.871Z,80.84
2022-11-25T18:26:11.552Z,81.29
2022-11-25T18:31:12.931Z,81.68
2022-11-25T18:36:14.330Z,81.93
2022-11-25T18:41:21.399Z,81.52
2022-11-25T18:46:22.786Z,82.00
2022-11-25T18:51:24.275Z,82.27
2022-11-25T18:56:25.667Z,82.33
2022-11-25T19:01:27.925Z,82.23
2022-11-25T19:06:29.405Z,83.03
2022-11-25T19:11:36.434Z,83.08
2022-11-25T19:16:38.467Z,82.89
2022-11-25T19:21:39.865Z,82.88
2022-11-25T19:26:45.164Z,82.64
2022-11-25T19:31:49.301Z,82.42
2022-11-25T19:36:50.909Z,82.57
2022-11-25T19:41:52.750Z,83.50
2022-11-25T19:52:19.480Z,84.10
2022-11-25T19:57:23.617Z,85.02
2022-11-25T20:02:26.394Z,85.07
2022-11-25T20:07:29.906Z,85.24
2022-11-25T20:12:31.224Z,85.63
2022-11-25T20:17:34.932Z,85.06
2022-11-25T20:22:39.506Z,85.54
2022-11-25T20:27:40.874Z,85.40
2022-11-25T20:32:42.187Z,84.46
2022-11-25T20:38:00.423Z,84.63
2022-11-25T20:43:01.826Z,84.71
2022-11-25T20:48:03.455Z,84.47
2022-11-25T20:53:05.149Z,84.61
2022-11-25T20:58:20.513Z,85.09
2022-11-25T21:03:22.079Z,85.60
2022-11-25T21:08:25.829Z,85.56
2022-11-25T21:13:29.579Z,86.21
2022-11-25T21:18:30.836Z,86.37
2022-11-25T21:23:34.990Z,87.05
2022-11-25T21:28:41.723Z,86.44
2022-11-25T21:33:44.257Z,86.97
2022-11-25T21:38:47.372Z,86.88
2022-11-25T21:43:50.011Z,87.20
2022-11-25T21:48:51.369Z,87.37
2022-11-25T21:53:53.864Z,88.07
2022-11-25T21:58:56.405Z,87.74
2022-11-25T22:03:58.536Z,87.73
2022-11-25T22:08:59.872Z,87.75
2022-11-25T22:14:05.065Z,86.87
2022-11-25T22:19:06.364Z,86.95
2022-11-25T22:24:18.323Z,86.61
2022-11-25T22:29:23.503Z,86.97
2022-11-25T22:34:25.366Z,87.29
2022-11-25T22:39:27.069Z,87.45
2022-11-25T22:44:46.707Z,87.18
2022-11-25T22:49:49.553Z,87.44
2022-11-25T22:54:50.902Z,87.24
2022-11-25T22:59:52.217Z,86.95
2022-11-25T23:04:55.784Z,86.69
2022-11-25T23:09:57.177Z,86.42
2022-11-25T23:14:58.423Z,86.24
2022-11-25T23:19:59.708Z,86.65
2022-11-25T23:25:01.003Z,86.13
2022-11-25T23:30:02.303Z,85.88
2022-11-25T23:35:05.037Z,86.00
2022-11-25T23:40:13.378Z,86.24
2022-11-25T23:45:16.786Z,85.89
2022-11-25T23:50:26.118Z,86.44
2022-11-25T23:55:31.637Z,85.93
